createdAt,value
2022-12-06T00:02:48.726Z,99218.84
2022-12-06T00:07:51.766Z,99223.34
2022-12-06T00:12:54.858Z,99215.91
2022-12-06T00:17:59.251Z,99206.81
2022-12-06T00:23:02.219Z,99217.28
2022-12-06T00:28:05.418Z,99220.47
2022-12-06T00:33:09.779Z,99220.31
2022-12-06T00:38:12.791Z,99211.88
2022-12-06T00:43:15.846Z,99215.22
2022-12-06T00:48:20.241Z,99210.91
2022-12-06T00:53:23.960Z,99211.16
2022-12-06T00:58:27.091Z,99213.00
2022-12-06T01:03:35.114Z,99212.81
2022-12-06T01:08:39.301Z,99224.09
2022-12-06T01:13:42.386Z,99222.91
2022-12-06T01:18:47.499Z,99217.78
2022-12-06T01:23:51.011Z,99208.03
2022-12-06T01:28:54.586Z,99193.66
2022-12-06T01:33:58.998Z,99185.66
2022-12-06T01:39:06.858Z,99172.94
2022-12-06T01:44:41.497Z,99168.66
2022-12-06T01:49:50.941Z,99169.81
2022-12-06T01:54:54.638Z,99157.75
2022-12-06T01:59:57.904Z,99162.59
2022-12-06T02:05:03.639Z,99142.72
2022-12-06T02:10:07.867Z,99134.91
2022-12-06T02:15:11.954Z,99134.00
2022-12-06T02:20:33.744Z,99126.19
2022-12-06T02:25:56.999Z,99117.34
2022-12-06T02:31:08.698Z,99116.50
2022-12-06T02:36:19.080Z,99118.22
2022-12-06T02:41:25.195Z,99113.84
2022-12-06T02:46:35.090Z,99109.28
2022-12-06T02:51:38.618Z,99104.53
2022-12-06T02:56:41.473Z,99096.41
2022-12-06T03:01:49.948Z,99092.19
2022-12-06T03:07:08.151Z,99088.69
2022-12-06T03:12:19.250Z,99087.97
2022-12-06T03:17:31.293Z,99093.31
2022-12-06T03:22:39.963Z,99086.53
2022-12-06T03:27:45.140Z,99087.50
2022-12-06T03:32:51.207Z,99087.38
2022-12-06T03:37:59.935Z,99091.94
2022-12-06T03:43:03.660Z,99080.13
2022-12-06T03:48:12.287Z,99077.69
2022-12-06T03:53:18.064Z,99073.06
2022-12-06T03:58:21.022Z,99067.16
2022-12-06T04:03:25.363Z,99074.69
2022-12-06T04:08:28.321Z,99066.03
2022-12-06T04:13:31.693Z,99066.00
2022-12-06T04:18:36.187Z,99068.00
2022-12-06T04:23:41.172Z,99064.03
2022-12-06T04:29:01.878Z,99058.53
2022-12-06T04:34:23.973Z,99058.53
2022-12-06T04:39:27.232Z,99053.25
2022-12-06T04:44:30.157Z,99048.22
2022-12-06T04:49:35.041Z,99052.22
2022-12-06T04:54:39.094Z,99049.13
2022-12-06T04:59:44.071Z,99044.97
2022-12-06T05:04:48.341Z,99054.72
2022-12-06T05:09:51.235Z,99058.88
2022-12-06T05:14:54.075Z,99042.88
2022-12-06T05:19:58.474Z,99044.84
2022-12-06T05:25:01.677Z,99039.78
2022-12-06T05:30:05.447Z,99042.16
2022-12-06T05:35:10.564Z,99041.81
2022-12-06T05:40:14.039Z,99052.50
2022-12-06T05:45:17.178Z,99044.34
2022-12-06T05:50:21.402Z,99048.13
2022-12-06T05:55:24.393Z,99045.03
2022-12-06T06:00:27.282Z,99037.28
2022-12-06T06:05:31.688Z,99035.97
2022-12-06T06:10:34.549Z,99037.25
2022-12-06T06:15:37.545Z,99027.41
2022-12-06T06:20:41.909Z,99023.19
2022-12-06T06:25:44.873Z,99033.75
2022-12-06T06:30:48.197Z,99031.13
2022-12-06T06:35:52.479Z,99043.84
2022-12-06T06:40:55.359Z,99035.88
2022-12-06T06:46:00.280Z,99031.94
2022-12-06T06:51:06.256Z,99044.31
2022-12-06T06:56:09.559Z,99056.03
2022-12-06T07:01:18.790Z,99057.09
2022-12-06T07:06:23.148Z,99043.44
2022-12-06T07:11:26.057Z,99042.81
2022-12-06T07:16:28.970Z,99046.06
2022-12-06T07:21:33.293Z,99045.94
2022-12-06T07:26:36.214Z,99046.88
2022-12-06T07:31:40.466Z,99048.94
2022-12-06T07:36:44.870Z,99052.50
2022-12-06T07:42:05.551Z,99049.59
2022-12-06T07:47:12.976Z,99057.38
2022-12-06T07:52:17.234Z,99048.63
2022-12-06T07:57:21.649Z,99050.50
2022-12-06T08:02:26.796Z,99050.91
2022-12-06T08:07:32.302Z,99046.34
2022-12-06T08:12:35.304Z,99057.84
2022-12-06T08:17:38.211Z,99056.09
2022-12-06T08:22:42.595Z,99049.31
2022-12-06T08:27:45.505Z,99042.16
2022-12-06T08:32:48.445Z,99042.47
2022-12-06T08:37:52.694Z,99051.38
2022-12-06T08:42:55.624Z,99045.03
2022-12-06T08:47:58.521Z,99041.44
2022-12-06T08:53:02.780Z,99046.06
2022-12-06T08:58:05.715Z,99044.72
2022-12-06T09:03:08.613Z,99040.69
2022-12-06T09:08:12.977Z,99039.72
2022-12-06T09:13:15.918Z,99038.66
2022-12-06T09:18:18.889Z,99046.66
2022-12-06T09:23:23.198Z,99031.72
2022-12-06T09:28:26.107Z,99036.75
2022-12-06T09:33:29.003Z,99030.22
2022-12-06T09:38:37.292Z,99028.97
2022-12-06T09:44:23.351Z,99024.31
2022-12-06T09:49:32.547Z,99017.13
2022-12-06T09:54:52.643Z,99012.97
2022-12-06T10:00:10.670Z,99002.94
2022-12-06T10:05:29.263Z,98993.81
2022-12-06T10:10:43.010Z,98989.50
2022-12-06T10:15:57.748Z,98990.72
2022-12-06T10:21:10.714Z,98976.97
2022-12-06T10:26:17.105Z,98977.28
2022-12-06T10:31:24.744Z,98978.00
2022-12-06T10:36:49.469Z,98985.19
2022-12-06T10:41:58.968Z,98972.78
2022-12-06T10:47:08.688Z,98969.50
2022-12-06T10:52:24.167Z,98968.81
2022-12-06T10:57:33.601Z,98961.78
2022-12-06T11:02:43.521Z,98960.13
2022-12-06T11:07:50.039Z,98968.63
2022-12-06T11:12:59.952Z,98953.94
2022-12-06T11:18:11.982Z,98965.41
2022-12-06T11:23:23.726Z,98953.72
2022-12-06T11:28:41.961Z,98948.34
2022-12-06T11:33:46.728Z,98950.78
2022-12-06T11:38:49.824Z,98955.97
2022-12-06T11:43:54.133Z,98955.69
2022-12-06T11:49:06.958Z,98945.75
2022-12-06T11:54:23.683Z,98941.06
2022-12-06T11:59:28.744Z,98937.00
2022-12-06T12:04:37.063Z,98933.09
2022-12-06T12:09:48.767Z,98929.09
2022-12-06T12:14:58.449Z,98918.91
2022-12-06T12:20:06.696Z,98922.06
2022-12-06T12:25:24.908Z,98914.19
2022-12-06T12:30:32.645Z,98917.25
2022-12-06T12:35:38.486Z,98912.44
2022-12-06T12:40:43.879Z,98911.72
2022-12-06T12:46:22.298Z,98913.38
2022-12-06T12:51:33.410Z,98904.34
2022-12-06T12:56:38.143Z,98897.75
2022-12-06T13:01:47.869Z,98910.53
2022-12-06T13:06:56.262Z,98912.81
2022-12-06T13:12:04.246Z,98916.91
2022-12-06T13:17:10.102Z,98909.13
2022-12-06T13:22:20.124Z,98910.47
2022-12-06T13:27:24.941Z,98908.19
2022-12-06T13:32:34.662Z,98897.28
2022-12-06T13:37:45.585Z,98901.78
2022-12-06T13:42:48.576Z,98886.84
2022-12-06T13:47:52.379Z,98888.50
2022-12-06T13:53:03.150Z,98900.50
2022-12-06T13:58:54.440Z,98898.19
2022-12-06T14:03:58.195Z,98895.91
2022-12-06T14:09:02.581Z,98896.97
2022-12-06T14:14:09.108Z,98892.63
2022-12-06T14:19:18.883Z,98893.13
2022-12-06T14:24:29.686Z,98901.66
2022-12-06T14:29:33.099Z,98900.38
2022-12-06T14:34:37.422Z,98901.81
2022-12-06T14:39:41.664Z,98902.13
2022-12-06T14:44:49.279Z,98903.91
2022-12-06T14:50:10.747Z,98897.63
2022-12-06T14:55:20.154Z,98903.16
2022-12-06T15:00:27.823Z,98900.25
2022-12-06T15:05:37.268Z,98909.94
2022-12-06T15:10:42.298Z,98903.63
2022-12-06T15:15:47.719Z,98910.41
2022-12-06T15:20:51.536Z,98908.66
2022-12-06T15:25:56.046Z,98907.97
2022-12-06T15:30:59.836Z,98923.22
2022-12-06T15:36:02.859Z,98912.19
2022-12-06T15:41:07.376Z,98904.44
2022-12-06T15:46:17.703Z,98901.06
2022-12-06T15:51:24.808Z,98896.31
2022-12-06T15:56:31.295Z,98900.56
2022-12-06T16:01:40.566Z,98898.28
2022-12-06T16:06:48.055Z,98901.53
2022-12-06T16:11:52.399Z,98900.41
2022-12-06T16:16:55.394Z,98895.72
2022-12-06T16:21:58.702Z,98902.81
2022-12-06T16:27:02.998Z,98900.56
2022-12-06T16:32:07.070Z,98899.91
2022-12-06T16:37:12.598Z,98894.72
2022-12-06T16:42:16.956Z,98902.97
2022-12-06T16:52:21.895Z,98892.47
2022-12-06T16:57:26.343Z,98897.81
2022-12-06T17:02:30.916Z,98899.44
2022-12-06T17:07:34.012Z,98898.28
2022-12-06T17:12:38.402Z,98895.03
2022-12-06T17:17:41.434Z,98885.53
2022-12-06T17:22:44.484Z,98894.28
2022-12-06T17:27:49.604Z,98894.94
2022-12-06T17:32:52.530Z,98892.63
2022-12-06T17:37:56.774Z,98896.53
2022-12-06T17:43:01.199Z,98895.06
2022-12-06T17:48:04.134Z,98905.28
2022-12-06T17:53:07.252Z,98905.09
2022-12-06T17:58:11.555Z,98900.25
2022-12-06T18:03:14.596Z,98907.38
2022-12-06T18:08:18.459Z,98890.53
2022-12-06T18:13:31.007Z,98903.00
2022-12-06T18:18:33.927Z,98910.25
2022-12-06T18:23:44.527Z,98905.56
2022-12-06T18:29:00.279Z,98913.69
2022-12-06T18:34:04.052Z,98907.53
2022-12-06T18:39:14.381Z,98904.78
2022-12-06T18:44:19.895Z,98911.09
2022-12-06T18:49:24.823Z,98912.06
2022-12-06T18:54:28.373Z,98914.94
2022-12-06T18:59:32.934Z,98910.44
2022-12-06T19:04:35.850Z,98912.84
2022-12-06T19:09:38.932Z,98906.06
2022-12-06T19:14:43.297Z,98913.34
2022-12-06T19:19:46.329Z,98913.69
2022-12-06T19:24:49.259Z,98922.22
2022-12-06T19:29:53.997Z,98909.97
2022-12-06T19:34:56.917Z,98911.09
2022-12-06T19:40:00.311Z,98917.38
2022-12-06T19:45:05.567Z,98922.06
2022-12-06T19:50:10.265Z,98917.69
2022-12-06T19:55:13.165Z,98910.41
2022-12-06T20:00:22.631Z,98920.56
2022-12-06T20:05:25.827Z,98919.81
2022-12-06T20:10:28.818Z,98914.63
2022-12-06T20:15:34.851Z,98917.88
2022-12-06T20:20:37.760Z,98913.66
2022-12-06T20:25:41.965Z,98913.31
2022-12-06T20:30:46.413Z,98911.88
2022-12-06T20:35:49.420Z,98903.81
2022-12-06T20:40:52.362Z,98900.22
2022-12-06T20:46:01.259Z,98900.72
2022-12-06T20:51:08.792Z,98903.13
2022-12-06T20:56:16.383Z,98899.25
2022-12-06T21:01:22.850Z,98904.44
2022-12-06T21:06:26.422Z,98898.09
2022-12-06T21:11:29.428Z,98906.03
2022-12-06T21:16:35.447Z,98901.53
2022-12-06T21:21:40.824Z,98900.72
2022-12-06T21:26:43.892Z,98897.16
2022-12-06T21:31:48.550Z,98905.56
2022-12-06T21:36:51.435Z,98905.06
2022-12-06T21:41:54.783Z,98908.97
2022-12-06T21:46:59.113Z,98910.25
2022-12-06T21:52:08.877Z,98907.66
2022-12-06T21:57:12.222Z,98896.69
2022-12-06T22:02:17.127Z,98903.81
2022-12-06T22:07:20.102Z,98909.28
2022-12-06T22:12:23.014Z,98902.19
2022-12-06T22:17:27.349Z,98903.97
2022-12-06T22:22:30.259Z,98890.38
2022-12-06T22:27:33.180Z,98891.50
2022-12-06T22:32:37.479Z,98882.28
2022-12-06T22:37:40.362Z,98891.19
2022-12-06T22:42:43.593Z,98890.25
2022-12-06T22:47:47.860Z,98887.81
2022-12-06T22:52:50.783Z,98893.13
2022-12-06T22:57:53.706Z,98892.16
2022-12-06T23:02:59.403Z,98883.44
2022-12-06T23:08:02.301Z,98886.03
2022-12-06T23:13:05.259Z,98886.03
2022-12-06T23:18:09.522Z,98886.03
2022-12-06T23:23:12.369Z,98895.06
2022-12-06T23:28:15.329Z,98889.91
2022-12-06T23:33:22.668Z,98897.03
2022-12-06T23:38:25.940Z,98897.81
2022-12-06T23:43:28.776Z,98883.09
2022-12-06T23:48:33.800Z,98900.09
2022-12-06T23:53:37.484Z,98884.38
2022-12-06T23:58:40.965Z,98882.63
